createdAt,value
2023-01-21T00:01:15.134Z,1.70
2023-01-21T00:03:43.129Z,1.73
2023-01-21T00:06:12.322Z,1.64
2023-01-21T00:08:39.665Z,1.64
2023-01-21T00:11:14.630Z,1.64
2023-01-21T00:13:43.497Z,1.63
2023-01-21T00:16:12.387Z,1.65
2023-01-21T00:18:39.819Z,1.69
2023-01-21T00:21:07.263Z,1.65
2023-01-21T00:23:34.745Z,1.72
2023-01-21T00:26:05.452Z,1.78
2023-01-21T00:28:36.356Z,1.77
2023-01-21T00:31:09.113Z,1.82
2023-01-21T00:33:37.705Z,1.83
2023-01-21T00:36:11.537Z,1.80
2023-01-21T00:38:39.408Z,1.74
2023-01-21T00:41:13.381Z,1.78
2023-01-21T00:43:42.224Z,1.78
2023-01-21T00:46:11.303Z,1.67
2023-01-21T00:48:39.093Z,1.73
2023-01-21T00:51:06.948Z,1.61
2023-01-21T00:53:38.271Z,1.60
2023-01-21T00:56:09.121Z,1.69
2023-01-21T00:58:37.637Z,1.72
2023-01-21T01:01:06.248Z,1.73
2023-01-21T01:03:34.454Z,1.73
2023-01-21T01:06:23.625Z,1.73
2023-01-21T01:08:52.194Z,1.77
2023-01-21T01:11:21.609Z,1.77
2023-01-21T01:13:48.945Z,1.74
2023-01-21T01:16:17.464Z,1.81
2023-01-21T01:18:45.557Z,1.78
2023-01-21T01:21:16.674Z,1.55
2023-01-21T01:23:44.827Z,1.51
2023-01-21T01:26:20.649Z,1.52
2023-01-21T01:28:48.999Z,1.46
2023-01-21T01:31:19.516Z,1.48
2023-01-21T01:33:47.683Z,1.42
2023-01-21T01:36:21.087Z,1.36
2023-01-21T01:38:48.486Z,1.06
2023-01-21T01:41:21.418Z,1.02
2023-01-21T01:44:02.104Z,0.98
2023-01-21T01:46:33.779Z,1.05
2023-01-21T01:49:13.347Z,0.97
2023-01-21T01:52:05.048Z,1.02
2023-01-21T01:54:39.339Z,0.95
2023-01-21T01:57:12.227Z,0.94
2023-01-21T01:59:40.885Z,0.89
2023-01-21T02:02:14.378Z,0.81
2023-01-21T02:04:47.942Z,0.80
2023-01-21T02:07:18.830Z,0.93
2023-01-21T02:09:46.395Z,0.81
2023-01-21T02:12:14.032Z,0.82
2023-01-21T02:14:44.361Z,0.87
2023-01-21T02:17:39.338Z,0.85
2023-01-21T02:20:37.098Z,0.96
2023-01-21T02:23:22.287Z,1.01
2023-01-21T02:26:45.086Z,0.84
2023-01-21T02:30:09.399Z,0.74
2023-01-21T02:33:40.755Z,0.79
2023-01-21T02:36:28.976Z,0.73
2023-01-21T02:39:53.159Z,0.67
2023-01-21T02:42:50.674Z,0.77
2023-01-21T02:45:45.928Z,0.76
2023-01-21T02:48:30.317Z,0.79
2023-01-21T02:50:58.350Z,0.78
2023-01-21T02:53:31.640Z,0.82
2023-01-21T02:56:25.046Z,0.75
2023-01-21T02:59:02.829Z,0.69
2023-01-21T03:02:07.106Z,0.80
2023-01-21T03:04:52.774Z,0.89
2023-01-21T03:07:43.748Z,0.85
2023-01-21T03:10:26.719Z,0.79
2023-01-21T03:13:39.554Z,0.92
2023-01-21T03:16:32.007Z,0.97
2023-01-21T03:19:06.778Z,0.95
2023-01-21T03:21:35.630Z,0.94
2023-01-21T03:24:03.051Z,0.94
2023-01-21T03:26:44.110Z,0.93
2023-01-21T03:29:21.802Z,0.93
2023-01-21T03:31:56.608Z,0.92
2023-01-21T03:34:27.739Z,0.98
2023-01-21T03:37:04.158Z,0.88
2023-01-21T03:39:48.716Z,0.91
2023-01-21T03:42:17.683Z,0.87
2023-01-21T03:44:46.687Z,0.89
2023-01-21T03:47:24.377Z,0.94
2023-01-21T03:50:09.677Z,0.95
2023-01-21T03:52:43.209Z,0.94
2023-01-21T03:55:16.226Z,0.99
2023-01-21T03:57:43.732Z,0.89
2023-01-21T04:00:13.380Z,0.92
2023-01-21T04:02:40.741Z,0.88
2023-01-21T04:05:08.894Z,0.88
2023-01-21T04:07:36.411Z,0.89
2023-01-21T04:10:04.131Z,0.90
2023-01-21T04:12:31.587Z,0.87
2023-01-21T04:14:58.935Z,0.82
2023-01-21T04:17:28.225Z,0.88
2023-01-21T04:19:55.577Z,0.78
2023-01-21T04:22:22.969Z,0.73
2023-01-21T04:24:50.452Z,0.66
2023-01-21T04:27:17.801Z,0.59
2023-01-21T04:29:45.177Z,0.60
2023-01-21T04:32:12.477Z,0.58
2023-01-21T04:34:39.767Z,0.52
2023-01-21T04:37:07.600Z,0.52
2023-01-21T04:39:34.969Z,0.61
2023-01-21T04:42:02.371Z,0.60
2023-01-21T04:44:29.713Z,0.60
2023-01-21T04:46:57.095Z,0.52
2023-01-21T04:49:24.420Z,0.64
2023-01-21T04:51:52.117Z,0.59
2023-01-21T04:54:19.492Z,0.51
2023-01-21T04:56:46.788Z,0.66
2023-01-21T04:59:14.263Z,0.57
2023-01-21T05:01:41.586Z,0.58
2023-01-21T05:04:08.918Z,0.58
2023-01-21T05:06:36.314Z,0.62
2023-01-21T05:09:03.902Z,0.58
2023-01-21T05:11:31.271Z,0.53
2023-01-21T05:13:58.635Z,0.52
2023-01-21T05:16:26.112Z,0.44
2023-01-21T05:18:53.437Z,0.47
2023-01-21T05:21:20.829Z,0.40
2023-01-21T05:23:48.225Z,0.33
2023-01-21T05:26:15.610Z,0.51
2023-01-21T05:28:43.043Z,0.49
2023-01-21T05:31:10.473Z,0.60
2023-01-21T05:33:37.945Z,0.61
2023-01-21T05:36:06.074Z,0.48
2023-01-21T05:38:33.383Z,0.42
2023-01-21T05:41:03.304Z,0.48
2023-01-21T05:43:30.887Z,0.54
2023-01-21T05:45:58.340Z,0.62
2023-01-21T05:48:25.932Z,0.60
2023-01-21T05:50:53.424Z,0.56
2023-01-21T05:53:21.067Z,0.62
2023-01-21T05:55:53.325Z,0.71
2023-01-21T05:58:22.632Z,0.75
2023-01-21T06:00:50.743Z,0.76
2023-01-21T06:03:19.164Z,0.72
2023-01-21T06:05:49.669Z,0.71
2023-01-21T06:08:18.050Z,0.71
2023-01-21T06:10:45.671Z,0.70
2023-01-21T06:13:14.934Z,0.75
2023-01-21T06:15:42.614Z,0.80
2023-01-21T06:18:09.987Z,0.73
2023-01-21T06:20:37.329Z,0.75
2023-01-21T06:23:05.201Z,0.73
2023-01-21T06:25:33.738Z,0.73
2023-01-21T06:28:01.466Z,0.74
2023-01-21T06:30:29.283Z,0.77
2023-01-21T06:32:56.596Z,0.81
2023-01-21T06:35:24.074Z,0.84
2023-01-21T06:37:51.512Z,0.83
2023-01-21T06:40:19.390Z,0.83
2023-01-21T06:42:48.757Z,0.83
2023-01-21T06:45:16.699Z,0.81
2023-01-21T06:47:45.171Z,0.91
2023-01-21T06:50:16.458Z,0.80
2023-01-21T06:52:47.062Z,0.85
2023-01-21T06:55:15.890Z,0.89
2023-01-21T06:57:44.366Z,0.93
2023-01-21T07:00:13.194Z,0.96
2023-01-21T07:02:40.607Z,0.92
2023-01-21T07:05:08.472Z,0.92
2023-01-21T07:07:36.114Z,1.01
2023-01-21T07:10:04.153Z,1.03
2023-01-21T07:12:31.838Z,0.99
2023-01-21T07:14:59.183Z,0.94
2023-01-21T07:17:26.524Z,0.93
2023-01-21T07:19:53.847Z,0.91
2023-01-21T07:22:21.391Z,0.95
2023-01-21T07:24:48.707Z,0.95
2023-01-21T07:27:16.223Z,0.88
2023-01-21T07:29:43.828Z,0.87
2023-01-21T07:32:11.184Z,0.90
2023-01-21T07:34:38.546Z,0.91
2023-01-21T07:37:06.053Z,0.83
2023-01-21T07:39:33.565Z,0.80
2023-01-21T07:42:00.849Z,0.83
2023-01-21T07:44:28.201Z,0.84
2023-01-21T07:46:55.628Z,0.86
2023-01-21T07:49:23.123Z,0.88
2023-01-21T07:51:50.514Z,0.98
2023-01-21T07:54:17.906Z,1.07
2023-01-21T07:56:45.249Z,1.17
2023-01-21T07:59:13.428Z,1.19
2023-01-21T08:01:41.376Z,1.22
2023-01-21T08:04:09.825Z,1.26
2023-01-21T08:06:41.499Z,1.27
2023-01-21T08:09:10.202Z,1.37
2023-01-21T08:11:37.476Z,1.38
2023-01-21T08:14:05.600Z,1.38
2023-01-21T08:16:33.051Z,1.28
2023-01-21T08:19:00.531Z,1.29
2023-01-21T08:21:27.982Z,1.26
2023-01-21T08:23:55.300Z,1.21
2023-01-21T08:26:25.522Z,1.19
2023-01-21T08:28:56.260Z,1.23
2023-01-21T08:31:23.780Z,1.24
2023-01-21T08:33:51.144Z,1.21
2023-01-21T08:36:18.490Z,1.29
2023-01-21T08:38:48.557Z,1.23
2023-01-21T08:41:16.618Z,1.42
2023-01-21T08:43:43.913Z,1.43
2023-01-21T08:46:11.262Z,1.58
2023-01-21T08:48:38.642Z,1.66
2023-01-21T08:51:06.493Z,1.67
2023-01-21T08:53:34.108Z,1.78
2023-01-21T08:56:04.458Z,1.61
2023-01-21T08:58:32.864Z,1.70
2023-01-21T09:01:08.201Z,1.73
2023-01-21T09:03:35.910Z,1.65
2023-01-21T09:06:05.848Z,1.86
2023-01-21T09:08:33.420Z,2.02
2023-01-21T09:11:02.858Z,1.75
2023-01-21T09:13:35.001Z,1.81
2023-01-21T09:16:02.558Z,2.02
2023-01-21T09:18:30.059Z,2.11
2023-01-21T09:21:05.445Z,2.10
2023-01-21T09:23:34.877Z,2.10
2023-01-21T09:26:20.179Z,2.07
2023-01-21T09:28:56.305Z,2.04
2023-01-21T09:31:25.863Z,2.21
2023-01-21T09:34:00.861Z,2.34
2023-01-21T09:36:32.192Z,2.37
2023-01-21T09:39:00.849Z,2.09
2023-01-21T09:41:36.549Z,1.98
2023-01-21T09:44:33.736Z,1.98
2023-01-21T09:47:24.558Z,1.96
2023-01-21T09:49:57.847Z,1.85
2023-01-21T09:52:48.484Z,1.80
2023-01-21T09:55:43.319Z,1.71
2023-01-21T09:58:30.390Z,1.68
2023-01-21T10:01:13.693Z,1.51
2023-01-21T10:04:43.800Z,1.65
2023-01-21T10:07:33.975Z,1.55
2023-01-21T10:10:16.420Z,1.77
2023-01-21T10:13:21.510Z,1.81
2023-01-21T10:16:27.205Z,1.67
2023-01-21T10:18:58.316Z,1.60
2023-01-21T10:21:34.605Z,1.66
2023-01-21T10:24:15.417Z,1.75
2023-01-21T10:26:47.899Z,1.79
2023-01-21T10:29:23.895Z,1.80
2023-01-21T10:32:00.125Z,1.89
2023-01-21T10:34:31.967Z,1.87
2023-01-21T10:37:18.338Z,1.98
2023-01-21T10:40:42.821Z,1.91
2023-01-21T10:43:30.739Z,1.81
2023-01-21T10:46:03.300Z,1.80
2023-01-21T10:49:03.662Z,1.81
2023-01-21T10:51:50.279Z,1.84
2023-01-21T10:54:54.025Z,1.87
2023-01-21T10:57:53.645Z,1.83
2023-01-21T11:00:27.673Z,1.68
2023-01-21T11:03:01.645Z,1.66
2023-01-21T11:05:31.902Z,1.80
2023-01-21T11:07:59.955Z,1.91
2023-01-21T11:10:28.265Z,1.96
2023-01-21T11:12:56.265Z,1.99
2023-01-21T11:15:24.457Z,2.10
2023-01-21T11:18:02.290Z,2.06
2023-01-21T11:20:41.927Z,1.94
2023-01-21T11:23:32.136Z,1.89
2023-01-21T11:26:16.524Z,1.99
2023-01-21T11:28:45.863Z,1.96
2023-01-21T11:31:23.085Z,2.16
2023-01-21T11:33:51.407Z,2.32
2023-01-21T11:36:21.395Z,2.24
2023-01-21T11:39:03.420Z,1.97
2023-01-21T11:41:31.482Z,1.88
2023-01-21T11:44:16.336Z,1.96
2023-01-21T11:46:44.084Z,1.97
2023-01-21T11:49:11.406Z,1.91
2023-01-21T11:51:42.037Z,1.97
2023-01-21T11:54:23.928Z,1.96
2023-01-21T11:57:00.262Z,2.02
2023-01-21T11:59:38.874Z,2.07
2023-01-21T12:02:36.557Z,1.98
2023-01-21T12:05:17.347Z,2.03
2023-01-21T12:07:51.158Z,2.07
2023-01-21T12:10:31.376Z,1.92
2023-01-21T12:13:25.897Z,1.89
2023-01-21T12:16:08.985Z,1.78
2023-01-21T12:19:17.778Z,1.74
2023-01-21T12:22:15.690Z,1.72
2023-01-21T12:25:38.315Z,1.66
2023-01-21T12:28:56.601Z,1.61
2023-01-21T12:31:43.471Z,1.70
2023-01-21T12:34:29.150Z,1.73
2023-01-21T12:37:11.551Z,1.75
2023-01-21T12:39:42.500Z,1.77
2023-01-21T12:42:29.331Z,1.73
2023-01-21T12:45:06.454Z,1.81
2023-01-21T12:47:52.490Z,1.73
2023-01-21T12:50:52.303Z,1.64
2023-01-21T12:53:44.344Z,1.62
2023-01-21T12:56:33.140Z,1.69
2023-01-21T12:59:32.203Z,1.74
2023-01-21T13:02:25.230Z,1.78
2023-01-21T13:05:13.363Z,1.72
2023-01-21T13:07:58.542Z,1.68
2023-01-21T13:10:42.293Z,1.68
2023-01-21T13:13:22.594Z,1.71
2023-01-21T13:15:56.655Z,1.75
2023-01-21T13:18:36.218Z,1.80
2023-01-21T13:21:49.967Z,1.93
2023-01-21T13:24:33.878Z,1.97
2023-01-21T13:28:00.184Z,2.00
2023-01-21T13:30:41.374Z,2.02
2023-01-21T13:33:35.201Z,2.01
2023-01-21T13:36:07.672Z,1.93
2023-01-21T13:38:56.385Z,1.87
2023-01-21T13:42:02.747Z,1.89
2023-01-21T13:45:02.441Z,2.02
2023-01-21T13:47:43.440Z,2.03
2023-01-21T13:50:22.923Z,2.04
2023-01-21T13:53:30.951Z,2.03
2023-01-21T13:56:29.040Z,2.13
2023-01-21T13:59:04.436Z,2.14
2023-01-21T14:01:45.551Z,2.22
2023-01-21T14:04:41.036Z,2.20
2023-01-21T14:07:35.696Z,2.33
2023-01-21T14:10:34.245Z,2.20
2023-01-21T14:13:53.665Z,2.32
2023-01-21T14:16:46.178Z,2.09
2023-01-21T14:19:38.552Z,2.13
2023-01-21T14:22:50.314Z,2.09
2023-01-21T14:25:51.966Z,2.03
2023-01-21T14:28:46.975Z,1.97
2023-01-21T14:31:21.036Z,2.02
2023-01-21T14:34:04.785Z,1.93
2023-01-21T14:36:41.809Z,1.89
2023-01-21T14:39:50.379Z,1.87
2023-01-21T14:42:24.816Z,1.75
2023-01-21T14:44:52.217Z,1.77
2023-01-21T14:47:42.601Z,1.73
2023-01-21T14:50:10.474Z,1.79
2023-01-21T14:52:46.216Z,1.75
2023-01-21T14:55:31.327Z,1.77
2023-01-21T14:58:01.675Z,1.81
2023-01-21T15:00:35.870Z,1.72
2023-01-21T15:03:03.149Z,1.65
2023-01-21T15:05:36.729Z,1.67
2023-01-21T15:08:29.886Z,1.67
2023-01-21T15:11:06.676Z,1.63
2023-01-21T15:13:39.641Z,1.59
2023-01-21T15:16:15.675Z,1.63
2023-01-21T15:19:09.229Z,1.69
2023-01-21T15:21:43.558Z,1.63
2023-01-21T15:24:40.587Z,1.60
2023-01-21T15:27:27.982Z,1.59
2023-01-21T15:29:55.250Z,1.55
2023-01-21T15:32:47.837Z,1.56
2023-01-21T15:35:32.761Z,1.53
2023-01-21T15:38:13.295Z,1.51
2023-01-21T15:41:06.262Z,1.50
2023-01-21T15:43:55.496Z,1.48
2023-01-21T15:46:46.005Z,1.47
2023-01-21T15:49:34.764Z,1.52
2023-01-21T15:52:16.974Z,1.56
2023-01-21T15:55:05.779Z,1.53
2023-01-21T15:58:02.079Z,1.52
2023-01-21T16:01:00.303Z,1.55
2023-01-21T16:03:42.938Z,1.61
2023-01-21T16:06:36.952Z,1.59
2023-01-21T16:09:10.957Z,1.54
2023-01-21T16:12:04.851Z,1.49
2023-01-21T16:14:52.919Z,1.44
2023-01-21T16:17:36.576Z,1.47
2023-01-21T16:20:08.969Z,1.50
2023-01-21T16:22:41.778Z,1.53
2023-01-21T16:25:15.013Z,1.47
2023-01-21T16:27:52.199Z,1.45
2023-01-21T16:30:31.967Z,1.45
2023-01-21T16:33:15.388Z,1.46
2023-01-21T16:35:51.495Z,1.48
2023-01-21T16:38:27.675Z,1.47
2023-01-21T16:41:07.308Z,1.46
2023-01-21T16:43:57.258Z,1.43
2023-01-21T16:46:39.001Z,1.40
2023-01-21T16:49:15.986Z,1.37
2023-01-21T16:52:20.539Z,1.41
2023-01-21T16:54:50.786Z,1.40
2023-01-21T16:57:19.433Z,1.46
2023-01-21T16:59:52.279Z,1.45
2023-01-21T17:02:27.044Z,1.45
2023-01-21T17:04:58.235Z,1.46
2023-01-21T17:07:37.902Z,1.51
2023-01-21T17:10:19.944Z,1.54
2023-01-21T17:12:59.526Z,1.58
2023-01-21T17:15:38.923Z,1.60
2023-01-21T17:18:30.226Z,1.56
2023-01-21T17:21:15.436Z,1.59
2023-01-21T17:23:51.807Z,1.57
2023-01-21T17:26:31.813Z,1.47
2023-01-21T17:29:29.254Z,1.46
2023-01-21T17:32:06.680Z,1.44
2023-01-21T17:34:39.899Z,1.41
2023-01-21T17:37:44.389Z,1.34
2023-01-21T17:40:34.244Z,1.41
2023-01-21T17:43:23.371Z,1.46
2023-01-21T17:45:54.969Z,1.54
2023-01-21T17:48:40.516Z,1.54
2023-01-21T17:51:17.803Z,1.55
2023-01-21T17:54:00.030Z,1.59
2023-01-21T17:56:41.498Z,1.59
2023-01-21T17:59:41.728Z,1.57
2023-01-21T18:02:21.978Z,1.64
2023-01-21T18:04:49.411Z,1.61
2023-01-21T18:07:30.019Z,1.57
2023-01-21T18:10:04.753Z,1.55
2023-01-21T18:12:32.151Z,1.56
2023-01-21T18:14:59.533Z,1.54
2023-01-21T18:17:27.121Z,1.52
2023-01-21T18:19:55.615Z,1.54
2023-01-21T18:22:31.949Z,1.52
2023-01-21T18:25:01.429Z,1.48
2023-01-21T18:27:28.933Z,1.48
2023-01-21T18:29:58.204Z,1.45
2023-01-21T18:32:25.677Z,1.46
2023-01-21T18:34:53.076Z,1.44
2023-01-21T18:37:20.648Z,1.44
2023-01-21T18:39:47.942Z,1.42
2023-01-21T18:42:17.920Z,1.38
2023-01-21T18:44:45.594Z,1.46
2023-01-21T18:47:16.010Z,1.42
2023-01-21T18:49:44.525Z,1.45
2023-01-21T18:52:18.070Z,1.43
2023-01-21T18:54:46.034Z,1.48
2023-01-21T18:57:21.195Z,1.52
2023-01-21T18:59:48.874Z,1.53
2023-01-21T19:02:19.699Z,1.51
2023-01-21T19:04:47.876Z,1.54
2023-01-21T19:07:19.229Z,1.54
2023-01-21T19:09:47.397Z,1.55
2023-01-21T19:12:18.414Z,1.55
2023-01-21T19:14:46.326Z,1.60
2023-01-21T19:17:24.007Z,1.55
2023-01-21T19:19:52.247Z,1.51
2023-01-21T19:22:19.649Z,1.48
2023-01-21T19:24:47.231Z,1.52
2023-01-21T19:27:35.369Z,1.47
2023-01-21T19:30:03.466Z,1.51
2023-01-21T19:32:30.966Z,1.56
2023-01-21T19:34:58.523Z,1.52
2023-01-21T19:37:26.202Z,1.56
2023-01-21T19:39:53.507Z,1.52
2023-01-21T19:42:20.915Z,1.36
2023-01-21T19:44:48.213Z,1.38
2023-01-21T19:47:29.764Z,1.48
2023-01-21T19:49:57.697Z,1.54
2023-01-21T19:52:25.190Z,1.60
2023-01-21T19:54:54.901Z,1.63
2023-01-21T19:57:22.711Z,1.59
2023-01-21T19:59:53.165Z,1.61
2023-01-21T20:02:20.603Z,1.47
2023-01-21T20:04:47.973Z,1.38
2023-01-21T20:07:16.675Z,1.51
2023-01-21T20:09:44.047Z,1.54
2023-01-21T20:12:12.899Z,1.41
2023-01-21T20:14:40.418Z,1.37
2023-01-21T20:17:14.003Z,1.38
2023-01-21T20:19:41.721Z,1.48
2023-01-21T20:22:10.576Z,1.38
2023-01-21T20:24:37.941Z,1.39
2023-01-21T20:27:09.357Z,1.50
2023-01-21T20:29:44.465Z,1.55
2023-01-21T20:32:11.954Z,1.59
2023-01-21T20:34:39.710Z,1.65
2023-01-21T20:37:09.279Z,1.63
2023-01-21T20:39:36.569Z,1.63
2023-01-21T20:42:04.033Z,1.57
2023-01-21T20:44:31.504Z,1.56
2023-01-21T20:47:01.000Z,1.61
2023-01-21T20:49:28.309Z,1.65
2023-01-21T20:51:55.588Z,1.60
2023-01-21T20:54:24.831Z,1.54
2023-01-21T20:56:52.191Z,1.51
2023-01-21T20:59:21.789Z,1.52
2023-01-21T21:01:51.341Z,1.60
2023-01-21T21:04:18.778Z,1.63
2023-01-21T21:06:46.100Z,1.63
2023-01-21T21:09:13.478Z,1.60
2023-01-21T21:11:40.851Z,1.60
2023-01-21T21:14:08.139Z,1.63
2023-01-21T21:16:35.661Z,1.65
2023-01-21T21:19:04.036Z,1.66
2023-01-21T21:21:31.403Z,1.70
2023-01-21T21:23:58.699Z,1.68
2023-01-21T21:26:29.469Z,1.72
2023-01-21T21:29:00.149Z,1.71
2023-01-21T21:31:32.809Z,1.61
2023-01-21T21:34:00.529Z,1.64
2023-01-21T21:36:27.835Z,1.64
2023-01-21T21:38:58.206Z,1.66
2023-01-21T21:41:45.471Z,1.66
2023-01-21T21:44:13.507Z,1.64
2023-01-21T21:46:59.927Z,1.70
2023-01-21T21:49:28.486Z,1.58
2023-01-21T21:51:56.936Z,1.60
2023-01-21T21:54:24.354Z,1.65
2023-01-21T21:56:51.755Z,1.70
2023-01-21T21:59:19.270Z,1.65
2023-01-21T22:01:46.945Z,1.70
2023-01-21T22:04:15.415Z,1.71
2023-01-21T22:06:42.741Z,1.71
2023-01-21T22:09:10.720Z,1.71
2023-01-21T22:11:38.174Z,1.69
2023-01-21T22:14:05.707Z,1.64
2023-01-21T22:16:33.812Z,1.65
2023-01-21T22:19:01.955Z,1.68
2023-01-21T22:21:33.296Z,1.65
2023-01-21T22:24:02.526Z,1.72
2023-01-21T22:26:30.691Z,1.66
2023-01-21T22:28:58.132Z,1.59
2023-01-21T22:31:29.409Z,1.55
2023-01-21T22:33:59.456Z,1.58
2023-01-21T22:36:30.412Z,1.64
2023-01-21T22:38:58.995Z,1.63
2023-01-21T22:41:27.335Z,1.64
2023-01-21T22:43:54.955Z,1.63
2023-01-21T22:46:27.321Z,1.60
2023-01-21T22:48:55.300Z,1.54
2023-01-21T22:51:23.626Z,1.51
2023-01-21T22:53:52.292Z,1.52
2023-01-21T22:56:31.525Z,1.50
2023-01-21T22:59:07.451Z,1.47
2023-01-21T23:01:36.398Z,1.46
2023-01-21T23:04:03.940Z,1.46
2023-01-21T23:06:31.394Z,1.41
2023-01-21T23:08:58.816Z,1.48
2023-01-21T23:11:26.322Z,1.53
2023-01-21T23:13:55.264Z,1.60
2023-01-21T23:16:23.568Z,1.64
2023-01-21T23:18:51.167Z,1.62
2023-01-21T23:21:22.473Z,1.60
2023-01-21T23:23:50.417Z,1.54
2023-01-21T23:26:19.424Z,1.52
2023-01-21T23:28:47.600Z,1.59
2023-01-21T23:31:18.389Z,1.59
2023-01-21T23:33:53.822Z,1.62
2023-01-21T23:36:21.531Z,1.63
2023-01-21T23:38:48.903Z,1.69
2023-01-21T23:41:21.153Z,1.60
2023-01-21T23:43:48.746Z,1.58
2023-01-21T23:46:19.785Z,1.60
2023-01-21T23:48:47.860Z,1.53
2023-01-21T23:51:17.369Z,1.59
2023-01-21T23:53:49.534Z,1.60
2023-01-21T23:56:21.968Z,1.62
2023-01-21T23:58:50.495Z,1.68
